sensor_id;sensor_type;location;lat;lon;timestamp;temperature;humidity
53800;DHT22;39708;53.210;6.948;2022-08-25T00:02:14;20.60;99.90
53800;DHT22;39708;53.210;6.948;2022-08-25T00:04:39;20.60;99.90
53800;DHT22;39708;53.210;6.948;2022-08-25T00:07:05;21.00;99.90
53800;DHT22;39708;53.210;6.948;2022-08-25T00:09:32;20.50;99.90
53800;DHT22;39708;53.210;6.948;2022-08-25T00:11:58;20.40;99.90
53800;DHT22;39708;53.210;6.948;2022-08-25T00:14:28;20.40;99.90
53800;DHT22;39708;53.210;6.948;2022-08-25T00:16:55;20.30;99.90
53800;DHT22;39708;53.210;6.948;2022-08-25T00:19:25;20.20;99.90
53800;DHT22;39708;53.210;6.948;2022-08-25T00:21:51;20.10;99.90
53800;DHT22;39708;53.210;6.948;2022-08-25T00:24:18;20.10;99.90
53800;DHT22;39708;53.210;6.948;2022-08-25T00:26:46;20.00;99.90
53800;DHT22;39708;53.210;6.948;2022-08-25T00:29:13;20.00;99.90
53800;DHT22;39708;53.210;6.948;2022-08-25T00:31:40;19.90;99.90
53800;DHT22;39708;53.210;6.948;2022-08-25T00:34:10;19.80;99.90
53800;DHT22;39708;53.210;6.948;2022-08-25T00:36:36;19.80;99.90
53800;DHT22;39708;53.210;6.948;2022-08-25T00:39:03;19.80;99.90
53800;DHT22;39708;53.210;6.948;2022-08-25T00:41:29;19.80;99.90
53800;DHT22;39708;53.210;6.948;2022-08-25T00:44:00;19.80;99.90
53800;DHT22;39708;53.210;6.948;2022-08-25T00:46:30;19.80;99.90
53800;DHT22;39708;53.210;6.948;2022-08-25T00:49:02;19.80;99.90
53800;DHT22;39708;53.210;6.948;2022-08-25T00:51:35;19.80;99.90
53800;DHT22;39708;53.210;6.948;2022-08-25T00:54:02;19.70;99.90
53800;DHT22;39708;53.210;6.948;2022-08-25T00:56:29;19.70;99.90
53800;DHT22;39708;53.210;6.948;2022-08-25T00:58:57;19.60;99.90
53800;DHT22;39708;53.210;6.948;2022-08-25T01:01:25;19.60;99.90
53800;DHT22;39708;53.210;6.948;2022-08-25T01:03:51;19.50;99.90
53800;DHT22;39708;53.210;6.948;2022-08-25T01:06:16;19.50;99.90
53800;DHT22;39708;53.210;6.948;2022-08-25T01:08:42;19.50;99.90
53800;DHT22;39708;53.210;6.948;2022-08-25T01:11:09;19.40;99.90
53800;DHT22;39708;53.210;6.948;2022-08-25T01:13:41;19.40;99.90
53800;DHT22;39708;53.210;6.948;2022-08-25T01:16:10;19.40;99.90
53800;DHT22;39708;53.210;6.948;2022-08-25T01:18:51;19.30;99.90
53800;DHT22;39708;53.210;6.948;2022-08-25T01:21:20;19.40;99.90
53800;DHT22;39708;53.210;6.948;2022-08-25T01:23:47;19.40;99.90
53800;DHT22;39708;53.210;6.948;2022-08-25T01:26:26;19.20;99.90
53800;DHT22;39708;53.210;6.948;2022-08-25T01:28:52;19.30;99.90
53800;DHT22;39708;53.210;6.948;2022-08-25T01:31:38;19.20;99.90
53800;DHT22;39708;53.210;6.948;2022-08-25T01:34:05;19.20;99.90
53800;DHT22;39708;53.210;6.948;2022-08-25T01:36:32;19.30;99.90
53800;DHT22;39708;53.210;6.948;2022-08-25T01:38:58;19.20;99.90
53800;DHT22;39708;53.210;6.948;2022-08-25T01:41:49;19.20;99.90
53800;DHT22;39708;53.210;6.948;2022-08-25T01:44:19;18.90;99.90
53800;DHT22;39708;53.210;6.948;2022-08-25T01:46:44;18.70;99.90
53800;DHT22;39708;53.210;6.948;2022-08-25T01:49:10;18.50;99.90
53800;DHT22;39708;53.210;6.948;2022-08-25T01:51:47;18.40;99.90
53800;DHT22;39708;53.210;6.948;2022-08-25T01:54:13;18.30;99.90
53800;DHT22;39708;53.210;6.948;2022-08-25T01:56:39;18.20;99.90
53800;DHT22;39708;53.210;6.948;2022-08-25T01:59:05;18.10;99.90
53800;DHT22;39708;53.210;6.948;2022-08-25T02:01:30;18.00;99.90
53800;DHT22;39708;53.210;6.948;2022-08-25T02:03:57;17.80;99.90
53800;DHT22;39708;53.210;6.948;2022-08-25T02:06:29;18.10;99.90
53800;DHT22;39708;53.210;6.948;2022-08-25T02:09:12;18.30;99.90
53800;DHT22;39708;53.210;6.948;2022-08-25T02:11:40;18.50;99.90
53800;DHT22;39708;53.210;6.948;2022-08-25T02:14:08;18.80;99.90
53800;DHT22;39708;53.210;6.948;2022-08-25T02:16:35;18.90;99.90
53800;DHT22;39708;53.210;6.948;2022-08-25T02:19:04;18.90;99.90
53800;DHT22;39708;53.210;6.948;2022-08-25T02:21:30;18.80;99.90
53800;DHT22;39708;53.210;6.948;2022-08-25T02:23:57;18.70;99.90
53800;DHT22;39708;53.210;6.948;2022-08-25T02:26:22;18.70;99.90
53800;DHT22;39708;53.210;6.948;2022-08-25T02:28:50;18.50;99.90
53800;DHT22;39708;53.210;6.948;2022-08-25T02:31:18;18.50;99.90
53800;DHT22;39708;53.210;6.948;2022-08-25T02:33:44;18.40;99.90
53800;DHT22;39708;53.210;6.948;2022-08-25T02:36:10;18.30;99.90
53800;DHT22;39708;53.210;6.948;2022-08-25T02:38:36;18.40;99.90
53800;DHT22;39708;53.210;6.948;2022-08-25T02:41:10;18.40;99.90
53800;DHT22;39708;53.210;6.948;2022-08-25T02:43:37;18.00;99.90
53800;DHT22;39708;53.210;6.948;2022-08-25T02:46:03;18.50;99.90
53800;DHT22;39708;53.210;6.948;2022-08-25T02:48:29;18.60;99.90
53800;DHT22;39708;53.210;6.948;2022-08-25T02:50:58;18.80;99.90
53800;DHT22;39708;53.210;6.948;2022-08-25T02:53:26;18.80;99.90
53800;DHT22;39708;53.210;6.948;2022-08-25T02:55:52;18.80;99.90
53800;DHT22;39708;53.210;6.948;2022-08-25T02:58:18;19.00;99.90
53800;DHT22;39708;53.210;6.948;2022-08-25T03:00:44;18.80;99.90
53800;DHT22;39708;53.210;6.948;2022-08-25T03:03:10;18.80;99.90
53800;DHT22;39708;53.210;6.948;2022-08-25T03:05:36;18.80;99.90
53800;DHT22;39708;53.210;6.948;2022-08-25T03:08:03;19.00;99.90
53800;DHT22;39708;53.210;6.948;2022-08-25T03:10:28;18.80;99.90
53800;DHT22;39708;53.210;6.948;2022-08-25T03:12:54;18.80;99.90
53800;DHT22;39708;53.210;6.948;2022-08-25T03:15:20;18.80;99.90
53800;DHT22;39708;53.210;6.948;2022-08-25T03:17:46;18.80;99.90
53800;DHT22;39708;53.210;6.948;2022-08-25T03:20:14;18.70;99.90
53800;DHT22;39708;53.210;6.948;2022-08-25T03:22:40;18.70;99.90
53800;DHT22;39708;53.210;6.948;2022-08-25T03:25:07;18.70;99.90
53800;DHT22;39708;53.210;6.948;2022-08-25T03:27:52;18.60;99.90
53800;DHT22;39708;53.210;6.948;2022-08-25T03:30:18;18.60;99.90
53800;DHT22;39708;53.210;6.948;2022-08-25T03:32:44;18.50;99.90
53800;DHT22;39708;53.210;6.948;2022-08-25T03:35:09;18.60;99.90
53800;DHT22;39708;53.210;6.948;2022-08-25T03:37:36;18.50;99.90
53800;DHT22;39708;53.210;6.948;2022-08-25T03:40:08;18.50;99.90
53800;DHT22;39708;53.210;6.948;2022-08-25T03:42:35;18.40;99.90
53800;DHT22;39708;53.210;6.948;2022-08-25T03:45:04;18.30;99.90
53800;DHT22;39708;53.210;6.948;2022-08-25T03:47:30;18.20;99.90
53800;DHT22;39708;53.210;6.948;2022-08-25T03:49:56;18.40;99.90
53800;DHT22;39708;53.210;6.948;2022-08-25T03:52:21;18.10;99.90
53800;DHT22;39708;53.210;6.948;2022-08-25T03:54:47;18.20;99.90
53800;DHT22;39708;53.210;6.948;2022-08-25T03:57:13;18.10;99.90
53800;DHT22;39708;53.210;6.948;2022-08-25T03:59:38;18.10;99.90
53800;DHT22;39708;53.210;6.948;2022-08-25T04:02:05;18.10;99.90
53800;DHT22;39708;53.210;6.948;2022-08-25T04:04:31;18.20;99.90
53800;DHT22;39708;53.210;6.948;2022-08-25T04:06:57;18.30;99.90
53800;DHT22;39708;53.210;6.948;2022-08-25T04:09:24;18.40;99.90
53800;DHT22;39708;53.210;6.948;2022-08-25T04:11:50;18.30;99.90
53800;DHT22;39708;53.210;6.948;2022-08-25T04:14:16;18.20;99.90
53800;DHT22;39708;53.210;6.948;2022-08-25T04:16:43;18.20;99.90
53800;DHT22;39708;53.210;6.948;2022-08-25T04:19:10;18.20;99.90
53800;DHT22;39708;53.210;6.948;2022-08-25T04:21:37;18.10;99.90
53800;DHT22;39708;53.210;6.948;2022-08-25T04:24:04;18.30;99.90
53800;DHT22;39708;53.210;6.948;2022-08-25T04:26:33;18.10;99.90
53800;DHT22;39708;53.210;6.948;2022-08-25T04:29:00;18.10;99.90
53800;DHT22;39708;53.210;6.948;2022-08-25T04:31:29;18.10;99.90
53800;DHT22;39708;53.210;6.948;2022-08-25T04:33:55;18.10;99.90
53800;DHT22;39708;53.210;6.948;2022-08-25T04:36:22;18.10;99.90
53800;DHT22;39708;53.210;6.948;2022-08-25T04:38:49;18.10;99.90
53800;DHT22;39708;53.210;6.948;2022-08-25T04:41:17;18.10;99.90
53800;DHT22;39708;53.210;6.948;2022-08-25T04:43:43;18.00;99.90
53800;DHT22;39708;53.210;6.948;2022-08-25T04:46:15;18.10;99.90
53800;DHT22;39708;53.210;6.948;2022-08-25T04:48:41;18.20;99.90
53800;DHT22;39708;53.210;6.948;2022-08-25T04:51:10;18.10;99.90
53800;DHT22;39708;53.210;6.948;2022-08-25T04:53:37;18.50;99.90
53800;DHT22;39708;53.210;6.948;2022-08-25T04:56:10;18.20;99.90
53800;DHT22;39708;53.210;6.948;2022-08-25T04:58:36;18.20;99.90
53800;DHT22;39708;53.210;6.948;2022-08-25T05:01:08;18.20;99.90
53800;DHT22;39708;53.210;6.948;2022-08-25T05:03:35;18.20;99.90
53800;DHT22;39708;53.210;6.948;2022-08-25T05:06:02;18.30;99.90
53800;DHT22;39708;53.210;6.948;2022-08-25T05:08:28;18.30;99.90
53800;DHT22;39708;53.210;6.948;2022-08-25T05:10:54;18.40;99.90
53800;DHT22;39708;53.210;6.948;2022-08-25T05:13:22;18.50;99.90
53800;DHT22;39708;53.210;6.948;2022-08-25T05:15:58;18.50;99.90
53800;DHT22;39708;53.210;6.948;2022-08-25T05:18:26;18.50;99.90
53800;DHT22;39708;53.210;6.948;2022-08-25T05:20:53;18.70;99.90
53800;DHT22;39708;53.210;6.948;2022-08-25T05:23:21;18.70;99.90
53800;DHT22;39708;53.210;6.948;2022-08-25T05:25:47;18.80;99.90
53800;DHT22;39708;53.210;6.948;2022-08-25T05:28:13;19.00;99.90
53800;DHT22;39708;53.210;6.948;2022-08-25T05:30:41;19.00;99.90
53800;DHT22;39708;53.210;6.948;2022-08-25T05:33:08;19.10;99.90
53800;DHT22;39708;53.210;6.948;2022-08-25T05:35:34;19.20;99.90
53800;DHT22;39708;53.210;6.948;2022-08-25T05:38:01;19.30;99.90
53800;DHT22;39708;53.210;6.948;2022-08-25T05:40:26;19.40;99.90
53800;DHT22;39708;53.210;6.948;2022-08-25T05:42:53;19.50;99.90
53800;DHT22;39708;53.210;6.948;2022-08-25T05:45:19;19.60;99.90
53800;DHT22;39708;53.210;6.948;2022-08-25T05:47:45;19.60;99.90
53800;DHT22;39708;53.210;6.948;2022-08-25T05:50:10;19.70;99.90
53800;DHT22;39708;53.210;6.948;2022-08-25T05:52:36;19.80;99.90
53800;DHT22;39708;53.210;6.948;2022-08-25T05:55:02;19.80;99.90
53800;DHT22;39708;53.210;6.948;2022-08-25T05:57:28;19.90;99.90
53800;DHT22;39708;53.210;6.948;2022-08-25T05:59:54;19.90;99.90
53800;DHT22;39708;53.210;6.948;2022-08-25T06:02:19;20.00;99.90
53800;DHT22;39708;53.210;6.948;2022-08-25T06:05:04;20.00;99.90
53800;DHT22;39708;53.210;6.948;2022-08-25T06:07:30;20.10;99.90
53800;DHT22;39708;53.210;6.948;2022-08-25T06:09:55;20.20;99.90
53800;DHT22;39708;53.210;6.948;2022-08-25T06:12:21;20.30;99.90
53800;DHT22;39708;53.210;6.948;2022-08-25T06:14:47;20.30;99.90
53800;DHT22;39708;53.210;6.948;2022-08-25T06:17:14;20.40;99.90
53800;DHT22;39708;53.210;6.948;2022-08-25T06:19:41;20.50;99.90
53800;DHT22;39708;53.210;6.948;2022-08-25T06:22:07;20.50;99.90
53800;DHT22;39708;53.210;6.948;2022-08-25T06:24:33;20.60;99.90
53800;DHT22;39708;53.210;6.948;2022-08-25T06:26:59;20.60;99.90
53800;DHT22;39708;53.210;6.948;2022-08-25T06:29:25;20.80;99.90
53800;DHT22;39708;53.210;6.948;2022-08-25T06:31:50;20.80;99.90
53800;DHT22;39708;53.210;6.948;2022-08-25T06:34:17;20.90;99.90
53800;DHT22;39708;53.210;6.948;2022-08-25T06:36:43;21.00;99.90
53800;DHT22;39708;53.210;6.948;2022-08-25T06:39:09;21.00;99.90
53800;DHT22;39708;53.210;6.948;2022-08-25T06:41:35;21.10;99.90
53800;DHT22;39708;53.210;6.948;2022-08-25T06:44:00;21.10;99.90
53800;DHT22;39708;53.210;6.948;2022-08-25T06:46:27;21.20;99.90
53800;DHT22;39708;53.210;6.948;2022-08-25T06:48:54;21.30;99.90
53800;DHT22;39708;53.210;6.948;2022-08-25T06:51:22;21.30;99.90
53800;DHT22;39708;53.210;6.948;2022-08-25T06:53:49;21.40;99.90
53800;DHT22;39708;53.210;6.948;2022-08-25T06:56:16;21.40;99.90
53800;DHT22;39708;53.210;6.948;2022-08-25T06:58:42;21.50;99.90
53800;DHT22;39708;53.210;6.948;2022-08-25T07:01:19;21.50;99.90
53800;DHT22;39708;53.210;6.948;2022-08-25T07:03:48;21.60;99.90
53800;DHT22;39708;53.210;6.948;2022-08-25T07:06:16;21.80;99.90
53800;DHT22;39708;53.210;6.948;2022-08-25T07:08:42;21.80;99.90
53800;DHT22;39708;53.210;6.948;2022-08-25T07:11:09;21.90;99.90
53800;DHT22;39708;53.210;6.948;2022-08-25T07:13:35;22.00;99.90
53800;DHT22;39708;53.210;6.948;2022-08-25T07:16:01;22.00;99.90
53800;DHT22;39708;53.210;6.948;2022-08-25T07:18:27;22.10;99.90
53800;DHT22;39708;53.210;6.948;2022-08-25T07:20:54;22.20;99.90
53800;DHT22;39708;53.210;6.948;2022-08-25T07:23:21;22.20;99.90
53800;DHT22;39708;53.210;6.948;2022-08-25T07:25:47;22.30;99.90
53800;DHT22;39708;53.210;6.948;2022-08-25T07:28:14;22.30;99.90
53800;DHT22;39708;53.210;6.948;2022-08-25T07:30:40;22.40;99.90
53800;DHT22;39708;53.210;6.948;2022-08-25T07:33:06;22.50;99.90
53800;DHT22;39708;53.210;6.948;2022-08-25T07:35:32;22.60;99.90
53800;DHT22;39708;53.210;6.948;2022-08-25T07:37:58;22.70;99.90
53800;DHT22;39708;53.210;6.948;2022-08-25T07:40:27;22.70;99.90
53800;DHT22;39708;53.210;6.948;2022-08-25T07:42:55;22.80;99.90
53800;DHT22;39708;53.210;6.948;2022-08-25T07:45:24;22.90;99.90
53800;DHT22;39708;53.210;6.948;2022-08-25T07:48:06;23.00;99.90
53800;DHT22;39708;53.210;6.948;2022-08-25T07:50:33;23.10;99.90
53800;DHT22;39708;53.210;6.948;2022-08-25T07:53:00;23.30;99.90
53800;DHT22;39708;53.210;6.948;2022-08-25T07:55:27;23.40;99.90
53800;DHT22;39708;53.210;6.948;2022-08-25T07:57:53;23.50;99.90
53800;DHT22;39708;53.210;6.948;2022-08-25T08:00:20;23.50;99.90
53800;DHT22;39708;53.210;6.948;2022-08-25T08:02:45;23.60;99.90
53800;DHT22;39708;53.210;6.948;2022-08-25T08:05:12;23.60;99.90
53800;DHT22;39708;53.210;6.948;2022-08-25T08:07:39;23.70;99.90
53800;DHT22;39708;53.210;6.948;2022-08-25T08:10:07;23.80;99.90
53800;DHT22;39708;53.210;6.948;2022-08-25T08:12:35;23.90;99.90
53800;DHT22;39708;53.210;6.948;2022-08-25T08:15:01;24.00;99.90
53800;DHT22;39708;53.210;6.948;2022-08-25T08:17:27;24.00;99.90
53800;DHT22;39708;53.210;6.948;2022-08-25T08:19:53;24.10;99.90
53800;DHT22;39708;53.210;6.948;2022-08-25T08:22:19;24.20;99.90
53800;DHT22;39708;53.210;6.948;2022-08-25T08:24:45;24.20;99.90
53800;DHT22;39708;53.210;6.948;2022-08-25T08:27:12;24.30;99.90
53800;DHT22;39708;53.210;6.948;2022-08-25T08:29:40;24.30;99.90
53800;DHT22;39708;53.210;6.948;2022-08-25T08:32:09;24.40;99.90
53800;DHT22;39708;53.210;6.948;2022-08-25T08:34:36;24.40;99.90
53800;DHT22;39708;53.210;6.948;2022-08-25T08:37:02;24.50;99.90
53800;DHT22;39708;53.210;6.948;2022-08-25T08:39:29;24.60;99.90
53800;DHT22;39708;53.210;6.948;2022-08-25T08:44:47;24.70;99.90
53800;DHT22;39708;53.210;6.948;2022-08-25T08:50:31;25.00;99.90
53800;DHT22;39708;53.210;6.948;2022-08-25T08:53:09;25.00;99.90
53800;DHT22;39708;53.210;6.948;2022-08-25T08:55:44;25.10;99.90
53800;DHT22;39708;53.210;6.948;2022-08-25T08:58:20;25.10;99.90
53800;DHT22;39708;53.210;6.948;2022-08-25T09:00:48;25.20;99.90
53800;DHT22;39708;53.210;6.948;2022-08-25T09:03:41;25.20;99.90
53800;DHT22;39708;53.210;6.948;2022-08-25T09:06:16;25.30;99.90
53800;DHT22;39708;53.210;6.948;2022-08-25T09:08:43;25.40;99.90
53800;DHT22;39708;53.210;6.948;2022-08-25T09:17:00;25.60;99.90
53800;DHT22;39708;53.210;6.948;2022-08-25T09:25:29;26.10;99.90
53800;DHT22;39708;53.210;6.948;2022-08-25T09:28:06;26.70;99.90
53800;DHT22;39708;53.210;6.948;2022-08-25T09:33:14;27.60;99.90
53800;DHT22;39708;53.210;6.948;2022-08-25T09:35:42;27.80;99.90
53800;DHT22;39708;53.210;6.948;2022-08-25T09:38:11;28.00;99.90
53800;DHT22;39708;53.210;6.948;2022-08-25T09:40:42;28.20;99.90
53800;DHT22;39708;53.210;6.948;2022-08-25T09:46:23;28.40;99.90
53800;DHT22;39708;53.210;6.948;2022-08-25T09:49:11;28.40;99.90
53800;DHT22;39708;53.210;6.948;2022-08-25T09:51:38;28.40;99.90
53800;DHT22;39708;53.210;6.948;2022-08-25T09:56:51;28.60;99.90
53800;DHT22;39708;53.210;6.948;2022-08-25T09:59:22;28.60;99.90
53800;DHT22;39708;53.210;6.948;2022-08-25T10:01:57;28.60;99.90
53800;DHT22;39708;53.210;6.948;2022-08-25T10:04:37;28.60;99.90
53800;DHT22;39708;53.210;6.948;2022-08-25T10:07:26;28.60;99.90
53800;DHT22;39708;53.210;6.948;2022-08-25T10:10:16;28.60;99.90
53800;DHT22;39708;53.210;6.948;2022-08-25T10:12:44;28.60;99.90
53800;DHT22;39708;53.210;6.948;2022-08-25T10:17:54;28.60;99.90
53800;DHT22;39708;53.210;6.948;2022-08-25T10:20:26;28.60;99.90
53800;DHT22;39708;53.210;6.948;2022-08-25T10:23:09;28.70;99.90
53800;DHT22;39708;53.210;6.948;2022-08-25T10:25:42;28.60;99.90
53800;DHT22;39708;53.210;6.948;2022-08-25T10:31:39;28.80;99.40
53800;DHT22;39708;53.210;6.948;2022-08-25T10:34:13;28.80;99.10
53800;DHT22;39708;53.210;6.948;2022-08-25T10:39:34;28.70;99.40
53800;DHT22;39708;53.210;6.948;2022-08-25T10:45:20;28.70;99.70
53800;DHT22;39708;53.210;6.948;2022-08-25T10:50:55;28.70;99.70
53800;DHT22;39708;53.210;6.948;2022-08-25T10:56:24;28.50;99.50
53800;DHT22;39708;53.210;6.948;2022-08-25T10:59:18;28.50;99.30
53800;DHT22;39708;53.210;6.948;2022-08-25T11:04:42;28.60;99.20
53800;DHT22;39708;53.210;6.948;2022-08-25T11:07:25;28.50;98.50
53800;DHT22;39708;53.210;6.948;2022-08-25T11:09:57;28.60;99.10
53800;DHT22;39708;53.210;6.948;2022-08-25T11:12:33;28.60;97.50
53800;DHT22;39708;53.210;6.948;2022-08-25T11:15:10;28.70;99.50
53800;DHT22;39708;53.210;6.948;2022-08-25T11:20:13;28.80;98.70
53800;DHT22;39708;53.210;6.948;2022-08-25T11:22:49;28.80;99.70
53800;DHT22;39708;53.210;6.948;2022-08-25T11:25:33;28.80;97.90
53800;DHT22;39708;53.210;6.948;2022-08-25T11:28:17;28.70;99.40
53800;DHT22;39708;53.210;6.948;2022-08-25T11:30:46;28.70;98.20
53800;DHT22;39708;53.210;6.948;2022-08-25T11:33:13;28.80;98.40
53800;DHT22;39708;53.210;6.948;2022-08-25T11:35:56;28.80;97.90
53800;DHT22;39708;53.210;6.948;2022-08-25T11:49:49;29.00;98.50
53800;DHT22;39708;53.210;6.948;2022-08-25T11:57:31;29.30;98.90
53800;DHT22;39708;53.210;6.948;2022-08-25T12:00:38;29.30;95.00
53800;DHT22;39708;53.210;6.948;2022-08-25T12:06:22;29.30;97.20
53800;DHT22;39708;53.210;6.948;2022-08-25T12:11:52;29.40;95.50
53800;DHT22;39708;53.210;6.948;2022-08-25T12:32:47;29.50;94.80
53800;DHT22;39708;53.210;6.948;2022-08-25T12:35:29;29.50;96.10
53800;DHT22;39708;53.210;6.948;2022-08-25T12:38:13;29.60;96.40
53800;DHT22;39708;53.210;6.948;2022-08-25T12:43:28;29.80;91.50
53800;DHT22;39708;53.210;6.948;2022-08-25T12:49:04;30.00;94.60
53800;DHT22;39708;53.210;6.948;2022-08-25T12:51:47;30.10;93.80
53800;DHT22;39708;53.210;6.948;2022-08-25T12:54:36;30.00;93.90
53800;DHT22;39708;53.210;6.948;2022-08-25T12:57:27;29.90;93.90
53800;DHT22;39708;53.210;6.948;2022-08-25T13:00:11;29.90;91.60
53800;DHT22;39708;53.210;6.948;2022-08-25T13:03:01;30.00;93.80
53800;DHT22;39708;53.210;6.948;2022-08-25T13:06:08;30.00;91.50
53800;DHT22;39708;53.210;6.948;2022-08-25T13:11:40;30.10;92.10
53800;DHT22;39708;53.210;6.948;2022-08-25T13:14:42;30.00;91.40
53800;DHT22;39708;53.210;6.948;2022-08-25T13:17:08;30.00;92.50
53800;DHT22;39708;53.210;6.948;2022-08-25T13:19:35;30.00;91.90
53800;DHT22;39708;53.210;6.948;2022-08-25T13:22:08;30.10;92.10
53800;DHT22;39708;53.210;6.948;2022-08-25T13:24:39;30.10;91.90
53800;DHT22;39708;53.210;6.948;2022-08-25T13:27:07;30.00;92.80
53800;DHT22;39708;53.210;6.948;2022-08-25T13:29:47;30.10;92.80
53800;DHT22;39708;53.210;6.948;2022-08-25T13:32:19;30.20;92.60
53800;DHT22;39708;53.210;6.948;2022-08-25T13:34:48;30.30;91.40
53800;DHT22;39708;53.210;6.948;2022-08-25T13:37:22;30.30;90.30
53800;DHT22;39708;53.210;6.948;2022-08-25T13:42:33;30.20;91.80
53800;DHT22;39708;53.210;6.948;2022-08-25T13:45:04;30.20;92.00
53800;DHT22;39708;53.210;6.948;2022-08-25T13:47:37;30.30;91.30
53800;DHT22;39708;53.210;6.948;2022-08-25T13:55:33;30.20;91.20
53800;DHT22;39708;53.210;6.948;2022-08-25T13:58:01;30.30;90.20
53800;DHT22;39708;53.210;6.948;2022-08-25T14:00:33;30.30;91.30
53800;DHT22;39708;53.210;6.948;2022-08-25T14:03:03;30.20;84.30
53800;DHT22;39708;53.210;6.948;2022-08-25T14:05:36;30.30;91.00
53800;DHT22;39708;53.210;6.948;2022-08-25T14:08:03;30.40;92.10
53800;DHT22;39708;53.210;6.948;2022-08-25T14:15:52;30.20;90.30
53800;DHT22;39708;53.210;6.948;2022-08-25T14:18:27;30.40;91.50
53800;DHT22;39708;53.210;6.948;2022-08-25T14:20:55;30.40;92.40
53800;DHT22;39708;53.210;6.948;2022-08-25T14:23:28;30.40;91.70
53800;DHT22;39708;53.210;6.948;2022-08-25T14:25:55;30.30;92.60
53800;DHT22;39708;53.210;6.948;2022-08-25T14:28:25;30.30;90.50
53800;DHT22;39708;53.210;6.948;2022-08-25T14:31:24;30.30;91.40
53800;DHT22;39708;53.210;6.948;2022-08-25T14:33:58;30.30;91.00
53800;DHT22;39708;53.210;6.948;2022-08-25T14:36:27;30.30;87.40
53800;DHT22;39708;53.210;6.948;2022-08-25T14:38:53;30.20;90.60
53800;DHT22;39708;53.210;6.948;2022-08-25T14:41:20;30.10;91.00
53800;DHT22;39708;53.210;6.948;2022-08-25T14:43:48;30.10;91.60
53800;DHT22;39708;53.210;6.948;2022-08-25T14:46:26;30.00;91.10
53800;DHT22;39708;53.210;6.948;2022-08-25T14:48:57;30.00;88.40
53800;DHT22;39708;53.210;6.948;2022-08-25T14:51:25;29.90;90.10
53800;DHT22;39708;53.210;6.948;2022-08-25T14:53:53;29.90;89.40
53800;DHT22;39708;53.210;6.948;2022-08-25T14:56:20;30.00;88.90
53800;DHT22;39708;53.210;6.948;2022-08-25T14:58:46;30.00;87.60
53800;DHT22;39708;53.210;6.948;2022-08-25T15:01:13;30.00;88.20
53800;DHT22;39708;53.210;6.948;2022-08-25T15:03:43;30.00;87.10
53800;DHT22;39708;53.210;6.948;2022-08-25T15:06:11;30.00;88.40
53800;DHT22;39708;53.210;6.948;2022-08-25T15:08:37;29.90;90.60
53800;DHT22;39708;53.210;6.948;2022-08-25T15:11:21;29.80;90.00
53800;DHT22;39708;53.210;6.948;2022-08-25T15:13:47;29.70;90.30
53800;DHT22;39708;53.210;6.948;2022-08-25T15:16:32;29.60;83.60
53800;DHT22;39708;53.210;6.948;2022-08-25T15:18:59;29.60;86.00
53800;DHT22;39708;53.210;6.948;2022-08-25T15:21:25;29.70;90.40
53800;DHT22;39708;53.210;6.948;2022-08-25T15:23:51;29.60;90.60
53800;DHT22;39708;53.210;6.948;2022-08-25T15:26:17;29.50;89.70
53800;DHT22;39708;53.210;6.948;2022-08-25T15:28:46;29.50;89.40
53800;DHT22;39708;53.210;6.948;2022-08-25T15:31:16;29.50;91.20
53800;DHT22;39708;53.210;6.948;2022-08-25T15:33:43;29.50;91.00
53800;DHT22;39708;53.210;6.948;2022-08-25T15:36:10;29.40;90.60
53800;DHT22;39708;53.210;6.948;2022-08-25T15:38:40;29.50;89.90
53800;DHT22;39708;53.210;6.948;2022-08-25T15:41:08;29.40;90.60
53800;DHT22;39708;53.210;6.948;2022-08-25T15:43:35;29.40;90.00
53800;DHT22;39708;53.210;6.948;2022-08-25T15:46:02;29.30;91.20
53800;DHT22;39708;53.210;6.948;2022-08-25T15:48:28;29.30;90.40
53800;DHT22;39708;53.210;6.948;2022-08-25T15:50:54;29.30;90.30
53800;DHT22;39708;53.210;6.948;2022-08-25T15:53:21;29.20;90.80
53800;DHT22;39708;53.210;6.948;2022-08-25T15:55:47;29.20;84.10
53800;DHT22;39708;53.210;6.948;2022-08-25T15:58:14;29.00;90.50
53800;DHT22;39708;53.210;6.948;2022-08-25T16:00:41;29.10;90.10
53800;DHT22;39708;53.210;6.948;2022-08-25T16:03:07;28.90;86.80
53800;DHT22;39708;53.210;6.948;2022-08-25T16:05:38;28.90;91.60
53800;DHT22;39708;53.210;6.948;2022-08-25T16:08:05;28.90;90.20
53800;DHT22;39708;53.210;6.948;2022-08-25T16:10:39;28.90;90.00
53800;DHT22;39708;53.210;6.948;2022-08-25T16:13:06;28.80;91.70
53800;DHT22;39708;53.210;6.948;2022-08-25T16:15:32;28.70;91.90
53800;DHT22;39708;53.210;6.948;2022-08-25T16:17:59;28.50;91.60
53800;DHT22;39708;53.210;6.948;2022-08-25T16:20:26;28.50;92.00
53800;DHT22;39708;53.210;6.948;2022-08-25T16:22:52;28.40;92.60
53800;DHT22;39708;53.210;6.948;2022-08-25T16:25:18;28.50;92.60
53800;DHT22;39708;53.210;6.948;2022-08-25T16:27:44;28.50;91.70
53800;DHT22;39708;53.210;6.948;2022-08-25T16:30:11;28.50;92.10
53800;DHT22;39708;53.210;6.948;2022-08-25T16:32:37;28.50;92.00
53800;DHT22;39708;53.210;6.948;2022-08-25T16:35:04;28.40;91.20
53800;DHT22;39708;53.210;6.948;2022-08-25T16:37:32;28.50;91.20
53800;DHT22;39708;53.210;6.948;2022-08-25T16:39:58;28.40;92.00
53800;DHT22;39708;53.210;6.948;2022-08-25T16:42:24;28.40;91.10
53800;DHT22;39708;53.210;6.948;2022-08-25T16:44:50;28.40;91.40
53800;DHT22;39708;53.210;6.948;2022-08-25T16:47:16;28.40;91.00
53800;DHT22;39708;53.210;6.948;2022-08-25T16:49:43;28.20;92.00
53800;DHT22;39708;53.210;6.948;2022-08-25T16:52:08;28.20;91.50
53800;DHT22;39708;53.210;6.948;2022-08-25T16:54:53;28.30;91.10
53800;DHT22;39708;53.210;6.948;2022-08-25T16:57:38;28.20;91.10
53800;DHT22;39708;53.210;6.948;2022-08-25T17:00:05;28.10;92.50
53800;DHT22;39708;53.210;6.948;2022-08-25T17:02:32;28.00;92.00
53800;DHT22;39708;53.210;6.948;2022-08-25T17:04:58;28.00;92.60
53800;DHT22;39708;53.210;6.948;2022-08-25T17:07:23;28.00;92.50
53800;DHT22;39708;53.210;6.948;2022-08-25T17:09:49;27.90;92.60
53800;DHT22;39708;53.210;6.948;2022-08-25T17:12:14;27.80;93.20
53800;DHT22;39708;53.210;6.948;2022-08-25T17:14:40;27.70;93.60
53800;DHT22;39708;53.210;6.948;2022-08-25T17:17:06;27.70;93.60
53800;DHT22;39708;53.210;6.948;2022-08-25T17:19:31;27.60;93.70
53800;DHT22;39708;53.210;6.948;2022-08-25T17:21:57;27.50;94.00
53800;DHT22;39708;53.210;6.948;2022-08-25T17:24:23;27.50;94.30
53800;DHT22;39708;53.210;6.948;2022-08-25T17:26:49;27.40;94.50
53800;DHT22;39708;53.210;6.948;2022-08-25T17:29:16;27.30;94.50
53800;DHT22;39708;53.210;6.948;2022-08-25T17:31:42;27.30;94.70
53800;DHT22;39708;53.210;6.948;2022-08-25T17:34:11;27.30;94.70
53800;DHT22;39708;53.210;6.948;2022-08-25T17:36:39;27.30;94.50
53800;DHT22;39708;53.210;6.948;2022-08-25T17:39:07;27.40;94.10